sensor_id;sensor_type;location;lat;lon;timestamp;P1;durP1;ratioP1;P2;durP2;ratioP2
68192;SDS011;55012;47.562;18.414;2023-08-07T00:00:13;0.75;;;0.32;;
68192;SDS011;55012;47.562;18.414;2023-08-07T00:02:38;0.43;;;0.43;;
68192;SDS011;55012;47.562;18.414;2023-08-07T00:05:05;0.40;;;0.40;;
68192;SDS011;55012;47.562;18.414;2023-08-07T00:07:31;1.23;;;0.50;;
68192;SDS011;55012;47.562;18.414;2023-08-07T00:09:56;1.00;;;0.30;;
68192;SDS011;55012;47.562;18.414;2023-08-07T00:12:22;0.40;;;0.40;;
68192;SDS011;55012;47.562;18.414;2023-08-07T00:14:50;1.23;;;0.50;;
68192;SDS011;55012;47.562;18.414;2023-08-07T00:17:16;3.47;;;0.40;;
68192;SDS011;55012;47.562;18.414;2023-08-07T00:19:42;0.40;;;0.40;;
68192;SDS011;55012;47.562;18.414;2023-08-07T00:22:07;0.95;;;0.40;;
68192;SDS011;55012;47.562;18.414;2023-08-07T00:24:33;0.40;;;0.40;;
68192;SDS011;55012;47.562;18.414;2023-08-07T00:26:58;1.25;;;0.52;;
68192;SDS011;55012;47.562;18.414;2023-08-07T00:29:24;0.93;;;0.60;;
68192;SDS011;55012;47.562;18.414;2023-08-07T00:31:50;0.90;;;0.55;;
68192;SDS011;55012;47.562;18.414;2023-08-07T00:34:15;2.08;;;0.60;;
68192;SDS011;55012;47.562;18.414;2023-08-07T00:36:40;2.17;;;0.60;;
68192;SDS011;55012;47.562;18.414;2023-08-07T00:39:06;1.15;;;0.65;;
68192;SDS011;55012;47.562;18.414;2023-08-07T00:41:32;1.77;;;0.70;;
68192;SDS011;55012;47.562;18.414;2023-08-07T00:43:58;2.10;;;0.70;;
68192;SDS011;55012;47.562;18.414;2023-08-07T00:46:23;1.27;;;0.60;;
68192;SDS011;55012;47.562;18.414;2023-08-07T00:48:49;0.80;;;0.52;;
68192;SDS011;55012;47.562;18.414;2023-08-07T00:51:17;0.70;;;0.65;;
68192;SDS011;55012;47.562;18.414;2023-08-07T00:53:43;1.40;;;0.73;;
68192;SDS011;55012;47.562;18.414;2023-08-07T00:56:09;1.48;;;0.60;;
68192;SDS011;55012;47.562;18.414;2023-08-07T00:58:34;0.80;;;0.70;;
68192;SDS011;55012;47.562;18.414;2023-08-07T01:01:01;2.67;;;0.70;;
68192;SDS011;55012;47.562;18.414;2023-08-07T01:03:27;1.10;;;0.70;;
68192;SDS011;55012;47.562;18.414;2023-08-07T01:05:52;2.20;;;0.80;;
68192;SDS011;55012;47.562;18.414;2023-08-07T01:08:18;2.58;;;0.80;;
68192;SDS011;55012;47.562;18.414;2023-08-07T01:13:42;1.27;;;0.60;;
68192;SDS011;55012;47.562;18.414;2023-08-07T01:16:36;2.20;;;0.70;;
68192;SDS011;55012;47.562;18.414;2023-08-07T01:19:25;0.73;;;0.60;;
68192;SDS011;55012;47.562;18.414;2023-08-07T01:22:08;0.77;;;0.60;;
68192;SDS011;55012;47.562;18.414;2023-08-07T01:24:35;0.98;;;0.60;;
68192;SDS011;55012;47.562;18.414;2023-08-07T01:27:50;0.50;;;0.50;;
68192;SDS011;55012;47.562;18.414;2023-08-07T01:33:19;0.85;;;0.57;;
68192;SDS011;55012;47.562;18.414;2023-08-07T01:35:32;3.72;;;0.85;;
68192;SDS011;55012;47.562;18.414;2023-08-07T01:38:00;1.63;;;0.60;;
68192;SDS011;55012;47.562;18.414;2023-08-07T01:40:27;0.80;;;0.60;;
68192;SDS011;55012;47.562;18.414;2023-08-07T01:42:53;0.40;;;0.40;;
68192;SDS011;55012;47.562;18.414;2023-08-07T01:45:23;1.17;;;0.60;;
68192;SDS011;55012;47.562;18.414;2023-08-07T01:47:49;1.55;;;0.50;;
68192;SDS011;55012;47.562;18.414;2023-08-07T01:50:14;0.85;;;0.57;;
68192;SDS011;55012;47.562;18.414;2023-08-07T01:52:40;0.60;;;0.50;;
68192;SDS011;55012;47.562;18.414;2023-08-07T01:55:05;0.90;;;0.70;;
68192;SDS011;55012;47.562;18.414;2023-08-07T01:57:31;1.30;;;0.50;;
68192;SDS011;55012;47.562;18.414;2023-08-07T01:59:56;0.55;;;0.55;;
68192;SDS011;55012;47.562;18.414;2023-08-07T02:02:22;1.13;;;0.70;;
68192;SDS011;55012;47.562;18.414;2023-08-07T02:04:48;1.73;;;0.70;;
68192;SDS011;55012;47.562;18.414;2023-08-07T02:07:14;0.70;;;0.60;;
68192;SDS011;55012;47.562;18.414;2023-08-07T02:09:39;0.60;;;0.60;;
68192;SDS011;55012;47.562;18.414;2023-08-07T02:12:05;1.50;;;0.60;;
68192;SDS011;55012;47.562;18.414;2023-08-07T02:14:30;0.80;;;0.60;;
68192;SDS011;55012;47.562;18.414;2023-08-07T02:16:56;0.50;;;0.50;;
68192;SDS011;55012;47.562;18.414;2023-08-07T02:19:21;1.23;;;0.70;;
68192;SDS011;55012;47.562;18.414;2023-08-07T02:21:47;0.50;;;0.50;;
68192;SDS011;55012;47.562;18.414;2023-08-07T02:24:12;1.52;;;0.60;;
68192;SDS011;55012;47.562;18.414;2023-08-07T02:26:38;1.70;;;0.60;;
68192;SDS011;55012;47.562;18.414;2023-08-07T02:29:04;1.65;;;0.70;;
68192;SDS011;55012;47.562;18.414;2023-08-07T02:31:31;0.80;;;0.65;;
68192;SDS011;55012;47.562;18.414;2023-08-07T02:33:57;0.90;;;0.70;;
68192;SDS011;55012;47.562;18.414;2023-08-07T02:36:22;2.55;;;0.65;;
68192;SDS011;55012;47.562;18.414;2023-08-07T02:38:48;1.00;;;0.70;;
68192;SDS011;55012;47.562;18.414;2023-08-07T02:41:13;1.52;;;0.60;;
68192;SDS011;55012;47.562;18.414;2023-08-07T02:43:38;0.93;;;0.80;;
68192;SDS011;55012;47.562;18.414;2023-08-07T02:46:04;3.45;;;0.88;;
68192;SDS011;55012;47.562;18.414;2023-08-07T02:48:29;1.52;;;0.70;;
68192;SDS011;55012;47.562;18.414;2023-08-07T02:50:55;0.85;;;0.70;;
68192;SDS011;55012;47.562;18.414;2023-08-07T02:53:20;1.38;;;0.73;;
68192;SDS011;55012;47.562;18.414;2023-08-07T02:55:46;1.85;;;0.70;;
68192;SDS011;55012;47.562;18.414;2023-08-07T02:58:11;1.02;;;0.70;;
68192;SDS011;55012;47.562;18.414;2023-08-07T03:00:37;0.98;;;0.60;;
68192;SDS011;55012;47.562;18.414;2023-08-07T03:03:02;1.35;;;0.70;;
68192;SDS011;55012;47.562;18.414;2023-08-07T03:05:28;1.98;;;0.70;;
68192;SDS011;55012;47.562;18.414;2023-08-07T03:07:54;2.00;;;0.68;;
68192;SDS011;55012;47.562;18.414;2023-08-07T03:10:19;1.63;;;0.68;;
68192;SDS011;55012;47.562;18.414;2023-08-07T03:12:45;1.08;;;0.73;;
68192;SDS011;55012;47.562;18.414;2023-08-07T03:15:11;0.70;;;0.60;;
68192;SDS011;55012;47.562;18.414;2023-08-07T03:17:37;0.93;;;0.65;;
68192;SDS011;55012;47.562;18.414;2023-08-07T03:20:02;1.58;;;0.60;;
68192;SDS011;55012;47.562;18.414;2023-08-07T03:22:29;1.48;;;0.60;;
68192;SDS011;55012;47.562;18.414;2023-08-07T03:24:54;0.60;;;0.60;;
68192;SDS011;55012;47.562;18.414;2023-08-07T03:27:20;1.40;;;0.57;;
68192;SDS011;55012;47.562;18.414;2023-08-07T03:29:46;1.23;;;0.57;;
68192;SDS011;55012;47.562;18.414;2023-08-07T03:32:11;2.00;;;0.70;;
68192;SDS011;55012;47.562;18.414;2023-08-07T03:34:37;1.02;;;0.80;;
68192;SDS011;55012;47.562;18.414;2023-08-07T03:37:02;1.13;;;0.70;;
68192;SDS011;55012;47.562;18.414;2023-08-07T03:39:28;1.25;;;0.60;;
68192;SDS011;55012;47.562;18.414;2023-08-07T03:41:53;1.38;;;0.70;;
68192;SDS011;55012;47.562;18.414;2023-08-07T03:44:19;2.45;;;0.60;;
68192;SDS011;55012;47.562;18.414;2023-08-07T03:46:47;1.58;;;0.90;;
68192;SDS011;55012;47.562;18.414;2023-08-07T03:49:13;1.33;;;0.80;;
68192;SDS011;55012;47.562;18.414;2023-08-07T03:51:39;0.90;;;0.70;;
68192;SDS011;55012;47.562;18.414;2023-08-07T03:54:05;0.90;;;0.80;;
68192;SDS011;55012;47.562;18.414;2023-08-07T03:56:31;1.10;;;0.70;;
68192;SDS011;55012;47.562;18.414;2023-08-07T03:59:02;3.38;;;0.90;;
68192;SDS011;55012;47.562;18.414;2023-08-07T04:01:28;0.85;;;0.70;;
68192;SDS011;55012;47.562;18.414;2023-08-07T04:03:53;1.33;;;1.00;;
68192;SDS011;55012;47.562;18.414;2023-08-07T04:06:19;3.72;;;1.10;;
68192;SDS011;55012;47.562;18.414;2023-08-07T04:08:46;1.70;;;1.00;;
68192;SDS011;55012;47.562;18.414;2023-08-07T04:11:11;0.88;;;0.80;;
68192;SDS011;55012;47.562;18.414;2023-08-07T04:13:37;1.33;;;1.00;;
68192;SDS011;55012;47.562;18.414;2023-08-07T04:16:02;2.38;;;1.00;;
68192;SDS011;55012;47.562;18.414;2023-08-07T04:18:29;0.98;;;0.80;;
68192;SDS011;55012;47.562;18.414;2023-08-07T04:20:56;2.33;;;0.80;;
68192;SDS011;55012;47.562;18.414;2023-08-07T04:23:21;7.10;;;1.00;;
68192;SDS011;55012;47.562;18.414;2023-08-07T04:25:47;1.23;;;0.85;;
68192;SDS011;55012;47.562;18.414;2023-08-07T04:28:13;2.72;;;1.00;;
68192;SDS011;55012;47.562;18.414;2023-08-07T04:30:39;1.38;;;0.85;;
68192;SDS011;55012;47.562;18.414;2023-08-07T04:33:05;1.77;;;0.93;;
68192;SDS011;55012;47.562;18.414;2023-08-07T04:35:30;2.53;;;1.08;;
68192;SDS011;55012;47.562;18.414;2023-08-07T04:37:56;1.52;;;0.98;;
68192;SDS011;55012;47.562;18.414;2023-08-07T04:40:21;1.58;;;1.00;;
68192;SDS011;55012;47.562;18.414;2023-08-07T04:42:48;2.10;;;0.95;;
68192;SDS011;55012;47.562;18.414;2023-08-07T04:45:14;1.38;;;0.90;;
68192;SDS011;55012;47.562;18.414;2023-08-07T04:47:40;1.48;;;1.00;;
68192;SDS011;55012;47.562;18.414;2023-08-07T04:50:06;1.80;;;1.10;;
68192;SDS011;55012;47.562;18.414;2023-08-07T04:52:32;1.25;;;0.93;;
68192;SDS011;55012;47.562;18.414;2023-08-07T04:54:57;2.05;;;1.00;;
68192;SDS011;55012;47.562;18.414;2023-08-07T04:57:23;2.45;;;1.00;;
68192;SDS011;55012;47.562;18.414;2023-08-07T04:59:48;1.10;;;0.90;;
68192;SDS011;55012;47.562;18.414;2023-08-07T05:02:14;1.50;;;0.90;;
68192;SDS011;55012;47.562;18.414;2023-08-07T05:04:39;1.73;;;1.00;;
68192;SDS011;55012;47.562;18.414;2023-08-07T05:07:05;2.75;;;1.00;;
68192;SDS011;55012;47.562;18.414;2023-08-07T05:09:30;2.00;;;1.13;;
68192;SDS011;55012;47.562;18.414;2023-08-07T05:11:56;3.45;;;1.00;;
68192;SDS011;55012;47.562;18.414;2023-08-07T05:14:21;1.55;;;0.98;;
68192;SDS011;55012;47.562;18.414;2023-08-07T05:16:47;2.42;;;1.13;;
68192;SDS011;55012;47.562;18.414;2023-08-07T05:19:13;1.25;;;0.90;;
68192;SDS011;55012;47.562;18.414;2023-08-07T05:21:38;3.35;;;1.10;;
68192;SDS011;55012;47.562;18.414;2023-08-07T05:24:04;2.80;;;1.13;;
68192;SDS011;55012;47.562;18.414;2023-08-07T05:26:30;2.42;;;1.20;;
68192;SDS011;55012;47.562;18.414;2023-08-07T05:28:55;3.00;;;1.02;;
68192;SDS011;55012;47.562;18.414;2023-08-07T05:31:23;3.20;;;1.05;;
68192;SDS011;55012;47.562;18.414;2023-08-07T05:33:49;2.53;;;1.20;;
68192;SDS011;55012;47.562;18.414;2023-08-07T05:36:14;1.15;;;0.88;;
68192;SDS011;55012;47.562;18.414;2023-08-07T05:38:40;1.65;;;0.95;;
68192;SDS011;55012;47.562;18.414;2023-08-07T05:41:05;3.25;;;0.88;;
68192;SDS011;55012;47.562;18.414;2023-08-07T05:43:31;1.63;;;1.08;;
68192;SDS011;55012;47.562;18.414;2023-08-07T05:45:57;1.00;;;0.80;;
68192;SDS011;55012;47.562;18.414;2023-08-07T05:48:22;1.33;;;0.95;;
68192;SDS011;55012;47.562;18.414;2023-08-07T05:50:48;3.25;;;1.17;;
68192;SDS011;55012;47.562;18.414;2023-08-07T05:53:13;1.67;;;1.10;;
68192;SDS011;55012;47.562;18.414;2023-08-07T05:55:39;2.17;;;1.08;;
68192;SDS011;55012;47.562;18.414;2023-08-07T05:58:06;2.92;;;0.90;;
68192;SDS011;55012;47.562;18.414;2023-08-07T06:00:32;1.50;;;1.00;;
68192;SDS011;55012;47.562;18.414;2023-08-07T06:02:57;1.52;;;0.88;;
68192;SDS011;55012;47.562;18.414;2023-08-07T06:05:23;2.03;;;0.95;;
68192;SDS011;55012;47.562;18.414;2023-08-07T06:07:49;2.55;;;1.00;;
68192;SDS011;55012;47.562;18.414;2023-08-07T06:10:15;2.53;;;1.20;;
68192;SDS011;55012;47.562;18.414;2023-08-07T06:12:40;2.08;;;0.90;;
68192;SDS011;55012;47.562;18.414;2023-08-07T06:15:06;2.63;;;1.23;;
68192;SDS011;55012;47.562;18.414;2023-08-07T06:17:31;2.50;;;0.80;;
68192;SDS011;55012;47.562;18.414;2023-08-07T06:19:57;1.80;;;0.90;;
68192;SDS011;55012;47.562;18.414;2023-08-07T06:22:22;3.03;;;0.90;;
68192;SDS011;55012;47.562;18.414;2023-08-07T06:24:48;1.88;;;0.60;;
68192;SDS011;55012;47.562;18.414;2023-08-07T06:27:14;0.98;;;0.70;;
68192;SDS011;55012;47.562;18.414;2023-08-07T06:29:39;1.52;;;0.80;;
68192;SDS011;55012;47.562;18.414;2023-08-07T06:32:05;2.38;;;0.75;;
68192;SDS011;55012;47.562;18.414;2023-08-07T06:34:31;3.15;;;1.17;;
68192;SDS011;55012;47.562;18.414;2023-08-07T06:36:56;0.88;;;0.70;;
68192;SDS011;55012;47.562;18.414;2023-08-07T06:39:22;2.00;;;0.80;;
68192;SDS011;55012;47.562;18.414;2023-08-07T06:41:47;1.30;;;0.70;;
68192;SDS011;55012;47.562;18.414;2023-08-07T06:44:13;1.60;;;0.70;;
68192;SDS011;55012;47.562;18.414;2023-08-07T06:46:38;1.35;;;0.60;;
68192;SDS011;55012;47.562;18.414;2023-08-07T06:49:04;2.08;;;0.70;;
68192;SDS011;55012;47.562;18.414;2023-08-07T06:51:29;1.73;;;0.70;;
68192;SDS011;55012;47.562;18.414;2023-08-07T06:53:55;0.60;;;0.60;;
68192;SDS011;55012;47.562;18.414;2023-08-07T06:56:21;2.17;;;0.55;;
68192;SDS011;55012;47.562;18.414;2023-08-07T06:58:46;0.98;;;0.50;;
68192;SDS011;55012;47.562;18.414;2023-08-07T07:01:12;1.85;;;0.70;;
68192;SDS011;55012;47.562;18.414;2023-08-07T07:03:37;1.65;;;0.93;;
68192;SDS011;55012;47.562;18.414;2023-08-07T07:06:03;1.13;;;0.60;;
68192;SDS011;55012;47.562;18.414;2023-08-07T07:08:28;2.55;;;0.60;;
68192;SDS011;55012;47.562;18.414;2023-08-07T07:10:53;1.38;;;0.60;;
68192;SDS011;55012;47.562;18.414;2023-08-07T07:13:19;0.90;;;0.70;;
68192;SDS011;55012;47.562;18.414;2023-08-07T07:15:44;0.88;;;0.52;;
68192;SDS011;55012;47.562;18.414;2023-08-07T07:18:09;2.67;;;0.60;;
68192;SDS011;55012;47.562;18.414;2023-08-07T07:20:35;0.88;;;0.60;;
68192;SDS011;55012;47.562;18.414;2023-08-07T07:23:01;0.65;;;0.55;;
68192;SDS011;55012;47.562;18.414;2023-08-07T07:25:26;1.45;;;0.70;;
68192;SDS011;55012;47.562;18.414;2023-08-07T07:27:52;1.33;;;0.50;;
68192;SDS011;55012;47.562;18.414;2023-08-07T07:30:17;0.50;;;0.40;;
68192;SDS011;55012;47.562;18.414;2023-08-07T07:32:42;2.03;;;0.45;;
68192;SDS011;55012;47.562;18.414;2023-08-07T07:35:08;0.60;;;0.40;;
68192;SDS011;55012;47.562;18.414;2023-08-07T07:37:34;0.95;;;0.50;;
68192;SDS011;55012;47.562;18.414;2023-08-07T07:39:59;0.45;;;0.40;;
68192;SDS011;55012;47.562;18.414;2023-08-07T07:42:25;0.75;;;0.47;;
68192;SDS011;55012;47.562;18.414;2023-08-07T07:44:50;0.80;;;0.40;;
68192;SDS011;55012;47.562;18.414;2023-08-07T07:47:17;0.82;;;0.40;;
68192;SDS011;55012;47.562;18.414;2023-08-07T07:49:44;2.85;;;0.52;;
68192;SDS011;55012;47.562;18.414;2023-08-07T07:52:14;1.58;;;0.70;;
68192;SDS011;55012;47.562;18.414;2023-08-07T07:54:40;1.70;;;0.52;;
68192;SDS011;55012;47.562;18.414;2023-08-07T07:57:05;1.85;;;0.60;;
68192;SDS011;55012;47.562;18.414;2023-08-07T07:59:31;0.88;;;0.60;;
68192;SDS011;55012;47.562;18.414;2023-08-07T08:01:57;0.85;;;0.50;;
68192;SDS011;55012;47.562;18.414;2023-08-07T08:04:22;0.70;;;0.50;;
68192;SDS011;55012;47.562;18.414;2023-08-07T08:06:48;0.88;;;0.60;;
68192;SDS011;55012;47.562;18.414;2023-08-07T08:09:13;0.85;;;0.50;;
68192;SDS011;55012;47.562;18.414;2023-08-07T08:11:39;1.10;;;0.60;;
68192;SDS011;55012;47.562;18.414;2023-08-07T08:14:04;0.70;;;0.50;;
68192;SDS011;55012;47.562;18.414;2023-08-07T08:16:29;0.47;;;0.40;;
68192;SDS011;55012;47.562;18.414;2023-08-07T08:18:55;0.30;;;0.30;;
68192;SDS011;55012;47.562;18.414;2023-08-07T08:21:20;0.77;;;0.50;;
68192;SDS011;55012;47.562;18.414;2023-08-07T08:23:46;1.35;;;0.70;;
68192;SDS011;55012;47.562;18.414;2023-08-07T08:26:11;0.10;;;0.10;;
68192;SDS011;55012;47.562;18.414;2023-08-07T08:28:37;0.20;;;0.10;;
68192;SDS011;55012;47.562;18.414;2023-08-07T08:31:03;0.10;;;0.10;;
68192;SDS011;55012;47.562;18.414;2023-08-07T08:33:28;0.35;;;0.10;;
68192;SDS011;55012;47.562;18.414;2023-08-07T08:35:56;0.20;;;0.20;;
68192;SDS011;55012;47.562;18.414;2023-08-07T08:38:22;0.88;;;0.30;;
68192;SDS011;55012;47.562;18.414;2023-08-07T08:40:48;0.17;;;0.15;;
68192;SDS011;55012;47.562;18.414;2023-08-07T08:43:16;0.85;;;0.20;;
68192;SDS011;55012;47.562;18.414;2023-08-07T08:45:43;0.35;;;0.20;;
68192;SDS011;55012;47.562;18.414;2023-08-07T08:48:09;1.10;;;0.32;;
68192;SDS011;55012;47.562;18.414;2023-08-07T08:50:41;0.47;;;0.20;;
68192;SDS011;55012;47.562;18.414;2023-08-07T08:53:07;0.50;;;0.30;;
68192;SDS011;55012;47.562;18.414;2023-08-07T08:55:34;0.65;;;0.28;;
68192;SDS011;55012;47.562;18.414;2023-08-07T08:58:01;0.30;;;0.30;;
68192;SDS011;55012;47.562;18.414;2023-08-07T09:00:28;0.73;;;0.25;;
68192;SDS011;55012;47.562;18.414;2023-08-07T09:02:55;0.40;;;0.40;;
68192;SDS011;55012;47.562;18.414;2023-08-07T09:05:21;0.90;;;0.30;;
68192;SDS011;55012;47.562;18.414;2023-08-07T09:07:47;0.65;;;0.30;;
68192;SDS011;55012;47.562;18.414;2023-08-07T09:10:14;0.10;;;0.10;;
68192;SDS011;55012;47.562;18.414;2023-08-07T09:12:41;0.43;;;0.10;;
68192;SDS011;55012;47.562;18.414;2023-08-07T09:15:10;1.17;;;0.20;;
68192;SDS011;55012;47.562;18.414;2023-08-07T09:17:40;0.95;;;0.10;;
68192;SDS011;55012;47.562;18.414;2023-08-07T09:20:07;0.10;;;0.10;;
68192;SDS011;55012;47.562;18.414;2023-08-07T09:22:37;0.10;;;0.10;;
68192;SDS011;55012;47.562;18.414;2023-08-07T09:25:03;0.68;;;0.30;;
68192;SDS011;55012;47.562;18.414;2023-08-07T09:27:29;0.32;;;0.32;;
68192;SDS011;55012;47.562;18.414;2023-08-07T09:29:56;0.15;;;0.00;;
68192;SDS011;55012;47.562;18.414;2023-08-07T09:32:23;0.47;;;0.20;;
68192;SDS011;55012;47.562;18.414;2023-08-07T09:34:49;0.52;;;0.20;;
68192;SDS011;55012;47.562;18.414;2023-08-07T09:37:16;0.60;;;0.40;;
68192;SDS011;55012;47.562;18.414;2023-08-07T09:39:41;0.20;;;0.20;;
68192;SDS011;55012;47.562;18.414;2023-08-07T09:42:16;0.20;;;0.15;;
68192;SDS011;55012;47.562;18.414;2023-08-07T09:47:11;0.20;;;0.15;;
68192;SDS011;55012;47.562;18.414;2023-08-07T09:49:38;0.73;;;0.22;;
68192;SDS011;55012;47.562;18.414;2023-08-07T09:52:08;1.00;;;0.20;;
68192;SDS011;55012;47.562;18.414;2023-08-07T09:54:35;0.82;;;0.50;;
68192;SDS011;55012;47.562;18.414;2023-08-07T09:57:01;0.50;;;0.20;;
68192;SDS011;55012;47.562;18.414;2023-08-07T09:59:27;0.77;;;0.40;;
68192;SDS011;55012;47.562;18.414;2023-08-07T10:01:53;2.55;;;0.90;;
68192;SDS011;55012;47.562;18.414;2023-08-07T10:04:23;2.03;;;0.40;;
68192;SDS011;55012;47.562;18.414;2023-08-07T10:06:48;1.48;;;0.30;;
68192;SDS011;55012;47.562;18.414;2023-08-07T10:09:14;0.47;;;0.30;;
68192;SDS011;55012;47.562;18.414;2023-08-07T10:11:41;0.82;;;0.47;;
68192;SDS011;55012;47.562;18.414;2023-08-07T10:14:08;0.20;;;0.20;;
68192;SDS011;55012;47.562;18.414;2023-08-07T10:16:33;2.85;;;0.40;;
68192;SDS011;55012;47.562;18.414;2023-08-07T10:19:08;0.30;;;0.30;;
68192;SDS011;55012;47.562;18.414;2023-08-07T10:21:43;1.38;;;0.30;;
68192;SDS011;55012;47.562;18.414;2023-08-07T10:24:10;0.30;;;0.30;;
68192;SDS011;55012;47.562;18.414;2023-08-07T10:26:41;0.20;;;0.20;;
68192;SDS011;55012;47.562;18.414;2023-08-07T10:29:10;0.60;;;0.40;;
68192;SDS011;55012;47.562;18.414;2023-08-07T10:31:40;0.65;;;0.52;;
68192;SDS011;55012;47.562;18.414;2023-08-07T10:34:07;0.22;;;0.22;;
68192;SDS011;55012;47.562;18.414;2023-08-07T10:36:33;2.63;;;0.30;;
68192;SDS011;55012;47.562;18.414;2023-08-07T10:39:06;0.30;;;0.30;;
68192;SDS011;55012;47.562;18.414;2023-08-07T10:41:40;3.08;;;0.50;;
68192;SDS011;55012;47.562;18.414;2023-08-07T10:44:22;0.20;;;0.20;;
68192;SDS011;55012;47.562;18.414;2023-08-07T10:46:56;0.40;;;0.30;;
68192;SDS011;55012;47.562;18.414;2023-08-07T10:49:40;0.20;;;0.20;;
68192;SDS011;55012;47.562;18.414;2023-08-07T10:52:11;0.98;;;0.40;;
68192;SDS011;55012;47.562;18.414;2023-08-07T10:54:40;0.77;;;0.50;;
68192;SDS011;55012;47.562;18.414;2023-08-07T10:57:10;3.90;;;0.40;;
68192;SDS011;55012;47.562;18.414;2023-08-07T10:59:38;2.42;;;0.30;;
68192;SDS011;55012;47.562;18.414;2023-08-07T11:02:03;1.67;;;0.40;;
68192;SDS011;55012;47.562;18.414;2023-08-07T11:04:35;1.70;;;0.35;;
68192;SDS011;55012;47.562;18.414;2023-08-07T11:07:01;1.42;;;0.52;;
68192;SDS011;55012;47.562;18.414;2023-08-07T11:09:27;0.68;;;0.50;;
68192;SDS011;55012;47.562;18.414;2023-08-07T11:11:52;2.97;;;0.45;;
68192;SDS011;55012;47.562;18.414;2023-08-07T11:14:18;0.38;;;0.38;;
68192;SDS011;55012;47.562;18.414;2023-08-07T11:16:45;1.85;;;0.40;;
68192;SDS011;55012;47.562;18.414;2023-08-07T11:19:16;0.75;;;0.40;;
68192;SDS011;55012;47.562;18.414;2023-08-07T11:21:43;1.00;;;0.50;;
68192;SDS011;55012;47.562;18.414;2023-08-07T11:24:12;1.92;;;0.40;;
68192;SDS011;55012;47.562;18.414;2023-08-07T11:26:38;0.32;;;0.32;;
68192;SDS011;55012;47.562;18.414;2023-08-07T11:29:04;0.80;;;0.32;;
68192;SDS011;55012;47.562;18.414;2023-08-07T11:31:29;1.95;;;0.40;;
68192;SDS011;55012;47.562;18.414;2023-08-07T11:33:57;2.92;;;0.60;;
68192;SDS011;55012;47.562;18.414;2023-08-07T11:36:23;2.10;;;0.50;;
68192;SDS011;55012;47.562;18.414;2023-08-07T11:38:49;2.95;;;0.50;;
68192;SDS011;55012;47.562;18.414;2023-08-07T11:41:15;0.50;;;0.45;;
68192;SDS011;55012;47.562;18.414;2023-08-07T11:43:42;1.45;;;0.40;;
68192;SDS011;55012;47.562;18.414;2023-08-07T11:46:09;0.50;;;0.32;;
68192;SDS011;55012;47.562;18.414;2023-08-07T11:48:36;0.57;;;0.40;;
68192;SDS011;55012;47.562;18.414;2023-08-07T11:51:04;0.70;;;0.50;;
68192;SDS011;55012;47.562;18.414;2023-08-07T11:53:30;0.85;;;0.50;;
68192;SDS011;55012;47.562;18.414;2023-08-07T11:55:58;0.60;;;0.40;;
68192;SDS011;55012;47.562;18.414;2023-08-07T11:58:27;1.40;;;0.30;;
68192;SDS011;55012;47.562;18.414;2023-08-07T12:00:58;1.40;;;0.50;;
68192;SDS011;55012;47.562;18.414;2023-08-07T12:03:28;0.98;;;0.40;;
68192;SDS011;55012;47.562;18.414;2023-08-07T12:05:56;0.52;;;0.30;;
68192;SDS011;55012;47.562;18.414;2023-08-07T12:08:22;2.05;;;0.50;;
68192;SDS011;55012;47.562;18.414;2023-08-07T12:10:49;1.00;;;0.38;;
68192;SDS011;55012;47.562;18.414;2023-08-07T12:13:15;0.30;;;0.30;;
68192;SDS011;55012;47.562;18.414;2023-08-07T12:15:41;0.30;;;0.30;;
68192;SDS011;55012;47.562;18.414;2023-08-07T12:18:07;0.50;;;0.30;;
68192;SDS011;55012;47.562;18.414;2023-08-07T12:20:33;1.05;;;0.30;;
68192;SDS011;55012;47.562;18.414;2023-08-07T12:22:58;1.27;;;0.30;;
68192;SDS011;55012;47.562;18.414;2023-08-07T12:25:24;0.40;;;0.40;;
68192;SDS011;55012;47.562;18.414;2023-08-07T12:27:49;0.40;;;0.40;;
68192;SDS011;55012;47.562;18.414;2023-08-07T12:30:15;1.95;;;0.30;;
68192;SDS011;55012;47.562;18.414;2023-08-07T12:32:40;0.80;;;0.40;;
68192;SDS011;55012;47.562;18.414;2023-08-07T12:35:06;0.45;;;0.30;;
68192;SDS011;55012;47.562;18.414;2023-08-07T12:37:34;0.43;;;0.40;;
68192;SDS011;55012;47.562;18.414;2023-08-07T12:40:00;0.45;;;0.28;;
68192;SDS011;55012;47.562;18.414;2023-08-07T12:42:25;1.48;;;0.35;;
68192;SDS011;55012;47.562;18.414;2023-08-07T12:44:51;0.43;;;0.40;;
68192;SDS011;55012;47.562;18.414;2023-08-07T12:47:16;0.38;;;0.38;;
68192;SDS011;55012;47.562;18.414;2023-08-07T12:49:42;2.15;;;0.40;;
68192;SDS011;55012;47.562;18.414;2023-08-07T12:52:09;0.30;;;0.30;;
68192;SDS011;55012;47.562;18.414;2023-08-07T12:54:34;0.20;;;0.20;;
68192;SDS011;55012;47.562;18.414;2023-08-07T12:57:00;0.22;;;0.22;;
68192;SDS011;55012;47.562;18.414;2023-08-07T12:59:25;0.30;;;0.30;;
68192;SDS011;55012;47.562;18.414;2023-08-07T13:01:51;0.65;;;0.30;;
68192;SDS011;55012;47.562;18.414;2023-08-07T13:04:18;0.30;;;0.30;;
68192;SDS011;55012;47.562;18.414;2023-08-07T13:06:43;0.95;;;0.50;;
68192;SDS011;55012;47.562;18.414;2023-08-07T13:09:09;0.30;;;0.30;;
68192;SDS011;55012;47.562;18.414;2023-08-07T13:11:34;0.30;;;0.30;;
68192;SDS011;55012;47.562;18.414;2023-08-07T13:14:03;1.33;;;0.40;;
68192;SDS011;55012;47.562;18.414;2023-08-07T13:16:28;0.90;;;0.30;;
68192;SDS011;55012;47.562;18.414;2023-08-07T13:18:54;0.50;;;0.50;;
68192;SDS011;55012;47.562;18.414;2023-08-07T13:21:19;0.35;;;0.20;;
68192;SDS011;55012;47.562;18.414;2023-08-07T13:23:45;1.33;;;0.40;;
68192;SDS011;55012;47.562;18.414;2023-08-07T13:26:10;0.40;;;0.40;;
68192;SDS011;55012;47.562;18.414;2023-08-07T13:28:35;0.60;;;0.40;;
68192;SDS011;55012;47.562;18.414;2023-08-07T13:31:01;0.52;;;0.50;;
68192;SDS011;55012;47.562;18.414;2023-08-07T13:33:26;1.30;;;0.85;;
68192;SDS011;55012;47.562;18.414;2023-08-07T13:35:52;0.50;;;0.50;;
68192;SDS011;55012;47.562;18.414;2023-08-07T13:38:17;1.23;;;0.60;;
68192;SDS011;55012;47.562;18.414;2023-08-07T13:40:43;0.60;;;0.60;;
68192;SDS011;55012;47.562;18.414;2023-08-07T13:43:10;0.85;;;0.60;;
68192;SDS011;55012;47.562;18.414;2023-08-07T13:45:36;0.30;;;0.30;;
68192;SDS011;55012;47.562;18.414;2023-08-07T13:48:02;0.60;;;0.50;;
68192;SDS011;55012;47.562;18.414;2023-08-07T13:50:27;0.68;;;0.50;;
68192;SDS011;55012;47.562;18.414;2023-08-07T13:52:53;0.65;;;0.50;;
68192;SDS011;55012;47.562;18.414;2023-08-07T13:55:18;0.32;;;0.32;;
68192;SDS011;55012;47.562;18.414;2023-08-07T13:57:44;0.95;;;0.50;;
68192;SDS011;55012;47.562;18.414;2023-08-07T14:00:10;1.08;;;0.60;;
68192;SDS011;55012;47.562;18.414;2023-08-07T14:02:36;2.40;;;0.70;;
68192;SDS011;55012;47.562;18.414;2023-08-07T14:05:01;0.40;;;0.40;;
68192;SDS011;55012;47.562;18.414;2023-08-07T14:07:27;2.70;;;0.95;;
68192;SDS011;55012;47.562;18.414;2023-08-07T14:09:52;1.35;;;0.60;;
68192;SDS011;55012;47.562;18.414;2023-08-07T14:12:18;1.25;;;0.60;;
68192;SDS011;55012;47.562;18.414;2023-08-07T14:14:43;0.82;;;0.60;;
68192;SDS011;55012;47.562;18.414;2023-08-07T14:17:09;1.30;;;0.60;;
68192;SDS011;55012;47.562;18.414;2023-08-07T14:19:34;0.90;;;0.60;;
68192;SDS011;55012;47.562;18.414;2023-08-07T14:22:00;0.57;;;0.50;;
68192;SDS011;55012;47.562;18.414;2023-08-07T14:24:25;0.85;;;0.50;;
68192;SDS011;55012;47.562;18.414;2023-08-07T14:26:51;1.27;;;0.60;;
68192;SDS011;55012;47.562;18.414;2023-08-07T14:29:16;0.45;;;0.45;;
68192;SDS011;55012;47.562;18.414;2023-08-07T14:31:42;1.52;;;0.60;;
68192;SDS011;55012;47.562;18.414;2023-08-07T14:34:07;0.93;;;0.70;;
68192;SDS011;55012;47.562;18.414;2023-08-07T14:36:33;1.02;;;0.60;;